Flight Track Log - Related Links

Times and Time Zones

All times are in EST time to prevent confusion due to time zone crossing. See the N884FT flight status page for this flight to view local times or setup timezone preferences in your user account.

Time Position Orientation Groundspeed Altitude Reporting Facility
EST Latitude Longitude Course Direction KTS MPH feet Rate Location/Type
Fri 08:15:54 PM 28.1000 -80.6167 360° North 77 89 400  Level Orlando TRACON
Fri 08:16:36 PM 28.1167 -80.6167 360° North 83 96 1,200 1,059 Climbing Orlando TRACON
Fri 08:17:36 PM 28.1167 -80.6500 270° West 125 144 2,200 900 Climbing Orlando TRACON
Fri 08:18:36 PM 28.1333 -80.6667 319° Northwest 107 123 3,000 750 Climbing Orlando TRACON
Fri 08:19:36 PM 28.1667 -80.6833 336° Northwest 110 127 3,700 714 Climbing Orlando TRACON
Fri 08:20:42 PM 28.1833 -80.7000 319° Northwest 112 129 4,500 650 Climbing Orlando TRACON
Fri 08:21:36 PM 28.2167 -80.7167 336° Northwest 115 132 5,000 316 Climbing Orlando TRACON
Fri 08:22:36 PM 28.2500 -80.7333 336° Northwest 131 151 5,100 50 Climbing Orlando TRACON
Fri 08:23:36 PM 28.2833 -80.7500 336° Northwest 160 184 5,100 -50 Level Orlando TRACON
Fri 08:24:36 PM 28.3333 -80.7667 344° North 162 186 5,000 -50 Descending Orlando TRACON
Fri 08:25:36 PM 28.3833 -80.7833 344° North 158 182 5,000  Level Orlando TRACON
Fri 08:26:36 PM 28.4167 -80.8000 336° Northwest 159 183 5,000  Level Orlando TRACON
Fri 08:27:36 PM 28.4667 -80.8000 360° North 159 183 5,000  Level Orlando TRACON
Fri 08:28:36 PM 28.5000 -80.8167 336° Northwest 159 183 5,000  Level Orlando TRACON
Fri 08:29:36 PM 28.5500 -80.8333 344° North 161 185 5,000  Level Orlando TRACON
Fri 08:30:36 PM 28.5833 -80.8500 336° Northwest 159 183 5,000  Level Orlando TRACON
Fri 08:31:36 PM 28.6333 -80.8667 344° North 161 185 5,000  Level Orlando TRACON
Fri 08:32:36 PM 28.6667 -80.8833 336° Northwest 161 185 5,000  Level Orlando TRACON
Fri 08:33:36 PM 28.7167 -80.9000 344° North 159 183 5,000  Level Orlando TRACON
Fri 08:35:51 PM 28.8069 -80.9378 340° North 163 188 5,000  Level Jacksonville Center
Fri 08:36:52 PM 28.8531 -80.9536 343° North 163 188 5,000  Level Jacksonville Center
Fri 08:37:53 PM 28.8972 -80.9669 345° North 161 185 5,000  Level Jacksonville Center
Fri 08:38:53 PM 28.9392 -80.9850 339° North 163 188 5,000  Level Jacksonville Center
Fri 08:39:54 PM 28.9833 -81.0008 343° North 162 186 5,000  Level Jacksonville Center
Fri 08:41:01 PM 29.0317 -81.0189 342° North 165 190 5,000  Level Jacksonville Center
Fri 08:41:56 PM 29.0672 -81.0325 342° North 161 185 5,000  Level Jacksonville Center
Fri 08:42:57 PM 29.1133 -81.0483 343° North 161 185 5,000  Level Jacksonville Center
Fri 08:43:57 PM 29.1553 -81.0642 342° North 162 186 5,000  Level Jacksonville Center
Fri 08:44:52 PM 29.1953 -81.0800 341° North 162 186 5,000  Level Jacksonville Center
Fri 08:46:05 PM 29.2478 -81.0981 351° North 164 189 5,000  Level Jacksonville Center
Fri 08:47:05 PM 29.2917 -81.1117 345° North 162 186 5,000  Level Jacksonville Center
Fri 08:48:06 PM 29.3358 -81.1297 340° North 162 186 5,000  Level Jacksonville Center
Fri 08:49:01 PM 29.3736 -81.1433 343° North 163 188 5,000  Level Jacksonville Center
Fri 08:49:40 PM 29.4008 -81.1572 336° Northwest 162 186 5,000  Level Jacksonville Center
Fri 08:50:59 PM 29.4597 -81.1778 343° North 161 185 5,000  Level Jacksonville Center
Fri 08:51:59 PM 29.5017 -81.1936 342° North 158 182 5,000  Level Jacksonville Center
Fri 08:53:00 PM 29.5436 -81.2072 344° North 154 177 5,000  Level Jacksonville Center
Fri 08:54:01 PM 29.5833 -81.2233 341° North 153 176 5,000  Level Jacksonville Center
Fri 08:56:02 PM 29.6650 -81.2458 347° North 151 174 5,000 -32 Level Jacksonville Center
Fri 08:57:09 PM 29.7133 -81.2569 349° North 153 176 4,900 -281 Descending Jacksonville Center
Fri 08:58:10 PM 29.7569 -81.2442 14° North 172 198 4,400 -609 Descending Jacksonville Center
Fri 08:59:17 PM 29.8067 -81.2242 19° North 153 176 3,600 -709 Descending Jacksonville Center
Fri 09:00:17 PM 29.8461 -81.2092 18° North 145 167 2,900 -678 Descending Jacksonville Center
Fri 09:01:12 PM 29.8778 -81.2206 343° North 141 162 2,300 -466 Descending Jacksonville Center
Fri 09:02:13 PM 29.8969 -81.2514 306° West 122 140 2,000 -516 Descending Jacksonville Center
Fri 09:03:20 PM 29.9203 -81.2822 311° West 115 132 1,200 -632 Descending Jacksonville Center
Fri 09:04:26 PM 29.9394 -81.3131 306° West 101 116 600 -165 Descending Jacksonville Center
Fri 09:06:22 PM 29.9669 -81.3533 308° West 109 125 700 353 Climbing Jacksonville Center
Fri 09:06:59 PM 29.9733 -81.3675 298° West 86 99 1,500 1,361 Climbing Jacksonville Center
Fri 09:07:59 PM 29.9697 -81.4036 263° West 102 117 2,900 1,138 Climbing Jacksonville Center
Fri 09:08:55 PM 29.9575 -81.4231 234° Southwest 91 105 3,700 634 Climbing Jacksonville Center
Fri 09:10:02 PM 29.9242 -81.4283 188° South 119 137 4,200 493 Climbing Jacksonville Center
Fri 09:11:09 PM 29.8822 -81.4314 184° South 129 148 4,800 516 Climbing Jacksonville Center
Fri 09:12:10 PM 29.8508 -81.4056 144° Southeast 136 157 5,300 466 Climbing Jacksonville Center
Fri 09:13:05 PM 29.8192 -81.3892 156° South 141 162 5,700 436 Climbing Jacksonville Center

Login

Don't have an account? Register now (free) for customized features, flight alerts, and more!